sensor_id;sensor_type;location;lat;lon;timestamp;temperature;humidity
39371;DHT22;25099;51.946;4.838;2022-11-30T00:00:17;7.30;99.90
39371;DHT22;25099;51.946;4.838;2022-11-30T00:02:43;7.30;99.90
39371;DHT22;25099;51.946;4.838;2022-11-30T00:05:09;7.30;99.90
39371;DHT22;25099;51.946;4.838;2022-11-30T00:07:35;7.30;99.90
39371;DHT22;25099;51.946;4.838;2022-11-30T00:10:00;7.30;99.90
39371;DHT22;25099;51.946;4.838;2022-11-30T00:12:27;7.30;99.90
39371;DHT22;25099;51.946;4.838;2022-11-30T00:14:53;7.30;99.90
39371;DHT22;25099;51.946;4.838;2022-11-30T00:17:19;7.30;99.90
39371;DHT22;25099;51.946;4.838;2022-11-30T00:19:44;7.30;99.90
39371;DHT22;25099;51.946;4.838;2022-11-30T00:22:10;7.30;99.90
39371;DHT22;25099;51.946;4.838;2022-11-30T00:24:35;7.30;99.90
39371;DHT22;25099;51.946;4.838;2022-11-30T00:27:01;7.30;99.90
39371;DHT22;25099;51.946;4.838;2022-11-30T00:29:26;7.30;99.90
39371;DHT22;25099;51.946;4.838;2022-11-30T00:31:52;7.30;99.90
39371;DHT22;25099;51.946;4.838;2022-11-30T00:34:18;7.20;99.90
39371;DHT22;25099;51.946;4.838;2022-11-30T00:36:43;7.30;99.90
39371;DHT22;25099;51.946;4.838;2022-11-30T00:39:09;7.30;99.90
39371;DHT22;25099;51.946;4.838;2022-11-30T00:41:34;7.30;99.90
39371;DHT22;25099;51.946;4.838;2022-11-30T00:44:00;7.30;99.90
39371;DHT22;25099;51.946;4.838;2022-11-30T00:46:25;7.20;99.90
39371;DHT22;25099;51.946;4.838;2022-11-30T00:48:51;7.30;99.90
39371;DHT22;25099;51.946;4.838;2022-11-30T00:51:16;7.30;99.90
39371;DHT22;25099;51.946;4.838;2022-11-30T00:53:43;7.30;99.90
39371;DHT22;25099;51.946;4.838;2022-11-30T00:56:09;7.30;99.90
39371;DHT22;25099;51.946;4.838;2022-11-30T00:58:35;7.30;99.90
39371;DHT22;25099;51.946;4.838;2022-11-30T01:01:01;7.30;99.90
39371;DHT22;25099;51.946;4.838;2022-11-30T01:03:26;7.30;99.90
39371;DHT22;25099;51.946;4.838;2022-11-30T01:05:52;7.30;99.90
39371;DHT22;25099;51.946;4.838;2022-11-30T01:08:18;7.30;99.90
39371;DHT22;25099;51.946;4.838;2022-11-30T01:10:43;7.30;99.90
39371;DHT22;25099;51.946;4.838;2022-11-30T01:13:12;7.30;99.90
39371;DHT22;25099;51.946;4.838;2022-11-30T01:15:39;7.30;99.90
39371;DHT22;25099;51.946;4.838;2022-11-30T01:18:06;7.30;99.90
39371;DHT22;25099;51.946;4.838;2022-11-30T01:20:31;7.20;99.90
39371;DHT22;25099;51.946;4.838;2022-11-30T01:22:57;7.30;99.90
39371;DHT22;25099;51.946;4.838;2022-11-30T01:25:23;7.30;99.90
39371;DHT22;25099;51.946;4.838;2022-11-30T01:27:49;7.30;99.90
39371;DHT22;25099;51.946;4.838;2022-11-30T01:30:15;7.30;99.90
39371;DHT22;25099;51.946;4.838;2022-11-30T01:32:41;7.30;99.90
39371;DHT22;25099;51.946;4.838;2022-11-30T01:35:07;7.30;99.90
39371;DHT22;25099;51.946;4.838;2022-11-30T01:37:33;7.30;99.90
39371;DHT22;25099;51.946;4.838;2022-11-30T01:39:59;7.30;99.90
39371;DHT22;25099;51.946;4.838;2022-11-30T01:42:24;7.20;99.90
39371;DHT22;25099;51.946;4.838;2022-11-30T01:44:59;7.20;99.90
39371;DHT22;25099;51.946;4.838;2022-11-30T01:47:29;7.20;99.90
39371;DHT22;25099;51.946;4.838;2022-11-30T01:50:12;7.20;99.90
39371;DHT22;25099;51.946;4.838;2022-11-30T01:52:42;7.20;99.90
39371;DHT22;25099;51.946;4.838;2022-11-30T02:00:20;7.00;99.90
39371;DHT22;25099;51.946;4.838;2022-11-30T02:03:27;7.00;99.90
39371;DHT22;25099;51.946;4.838;2022-11-30T02:05:50;6.90;99.90
39371;DHT22;25099;51.946;4.838;2022-11-30T02:08:17;6.90;99.90
39371;DHT22;25099;51.946;4.838;2022-11-30T02:10:47;6.80;99.90
39371;DHT22;25099;51.946;4.838;2022-11-30T02:19:16;6.70;99.90
39371;DHT22;25099;51.946;4.838;2022-11-30T02:30:34;6.60;99.90
39371;DHT22;25099;51.946;4.838;2022-11-30T02:33:12;6.60;99.90
39371;DHT22;25099;51.946;4.838;2022-11-30T02:35:42;6.60;99.90
39371;DHT22;25099;51.946;4.838;2022-11-30T02:38:10;6.60;99.90
39371;DHT22;25099;51.946;4.838;2022-11-30T02:40:37;6.60;99.90
39371;DHT22;25099;51.946;4.838;2022-11-30T02:43:04;6.60;99.90
39371;DHT22;25099;51.946;4.838;2022-11-30T02:45:43;6.60;99.90
39371;DHT22;25099;51.946;4.838;2022-11-30T02:48:13;6.60;99.90
39371;DHT22;25099;51.946;4.838;2022-11-30T02:50:47;6.50;99.90
39371;DHT22;25099;51.946;4.838;2022-11-30T02:53:14;6.60;99.90
39371;DHT22;25099;51.946;4.838;2022-11-30T02:55:40;6.50;99.90
39371;DHT22;25099;51.946;4.838;2022-11-30T02:58:06;6.50;99.90
39371;DHT22;25099;51.946;4.838;2022-11-30T03:00:32;6.40;99.90
39371;DHT22;25099;51.946;4.838;2022-11-30T03:02:58;6.30;99.90
39371;DHT22;25099;51.946;4.838;2022-11-30T03:05:24;6.30;99.90
39371;DHT22;25099;51.946;4.838;2022-11-30T03:07:50;6.20;99.90
39371;DHT22;25099;51.946;4.838;2022-11-30T03:10:15;6.20;99.90
39371;DHT22;25099;51.946;4.838;2022-11-30T03:12:41;6.10;99.90
39371;DHT22;25099;51.946;4.838;2022-11-30T03:15:07;6.10;99.90
39371;DHT22;25099;51.946;4.838;2022-11-30T03:17:32;6.10;99.90
39371;DHT22;25099;51.946;4.838;2022-11-30T03:19:58;6.00;99.90
39371;DHT22;25099;51.946;4.838;2022-11-30T03:22:24;6.00;99.90
39371;DHT22;25099;51.946;4.838;2022-11-30T03:24:50;6.00;99.90
39371;DHT22;25099;51.946;4.838;2022-11-30T03:27:15;5.90;99.90
39371;DHT22;25099;51.946;4.838;2022-11-30T03:29:41;5.80;99.90
39371;DHT22;25099;51.946;4.838;2022-11-30T03:32:06;5.80;99.90
39371;DHT22;25099;51.946;4.838;2022-11-30T03:34:32;5.80;99.90
39371;DHT22;25099;51.946;4.838;2022-11-30T03:36:58;5.80;99.90
39371;DHT22;25099;51.946;4.838;2022-11-30T03:39:23;5.90;99.90
39371;DHT22;25099;51.946;4.838;2022-11-30T03:41:49;5.90;99.90
39371;DHT22;25099;51.946;4.838;2022-11-30T03:44:15;5.90;99.90
39371;DHT22;25099;51.946;4.838;2022-11-30T03:46:41;5.90;99.90
39371;DHT22;25099;51.946;4.838;2022-11-30T03:49:07;5.90;99.90
39371;DHT22;25099;51.946;4.838;2022-11-30T03:51:32;5.90;99.90
39371;DHT22;25099;51.946;4.838;2022-11-30T03:53:58;6.00;99.90
39371;DHT22;25099;51.946;4.838;2022-11-30T03:56:24;5.90;99.90
39371;DHT22;25099;51.946;4.838;2022-11-30T03:58:50;5.90;99.90
39371;DHT22;25099;51.946;4.838;2022-11-30T04:01:19;6.00;99.90
39371;DHT22;25099;51.946;4.838;2022-11-30T04:03:49;5.90;99.90
39371;DHT22;25099;51.946;4.838;2022-11-30T04:06:15;5.90;99.90
39371;DHT22;25099;51.946;4.838;2022-11-30T04:08:44;5.90;99.90
39371;DHT22;25099;51.946;4.838;2022-11-30T04:11:10;5.90;99.90
39371;DHT22;25099;51.946;4.838;2022-11-30T04:13:37;5.90;99.90
39371;DHT22;25099;51.946;4.838;2022-11-30T04:16:03;5.90;99.90
39371;DHT22;25099;51.946;4.838;2022-11-30T04:18:31;6.00;99.90
39371;DHT22;25099;51.946;4.838;2022-11-30T04:20:58;6.00;99.90
39371;DHT22;25099;51.946;4.838;2022-11-30T04:23:26;6.60;99.90
39371;DHT22;25099;51.946;4.838;2022-11-30T04:25:53;6.00;99.90
39371;DHT22;25099;51.946;4.838;2022-11-30T04:28:19;6.00;99.90
39371;DHT22;25099;51.946;4.838;2022-11-30T04:30:45;6.00;99.90
39371;DHT22;25099;51.946;4.838;2022-11-30T04:33:12;6.00;99.90
39371;DHT22;25099;51.946;4.838;2022-11-30T04:35:40;6.00;99.90
39371;DHT22;25099;51.946;4.838;2022-11-30T04:38:07;6.10;99.90
39371;DHT22;25099;51.946;4.838;2022-11-30T04:40:32;6.10;99.90
39371;DHT22;25099;51.946;4.838;2022-11-30T04:42:58;6.10;99.90
39371;DHT22;25099;51.946;4.838;2022-11-30T04:45:24;6.20;99.90
39371;DHT22;25099;51.946;4.838;2022-11-30T04:47:50;6.20;99.90
39371;DHT22;25099;51.946;4.838;2022-11-30T04:50:15;6.30;99.90
39371;DHT22;25099;51.946;4.838;2022-11-30T04:52:41;6.40;99.90
39371;DHT22;25099;51.946;4.838;2022-11-30T04:55:07;6.50;99.90
39371;DHT22;25099;51.946;4.838;2022-11-30T04:57:32;6.50;99.90
39371;DHT22;25099;51.946;4.838;2022-11-30T04:59:58;6.40;99.90
39371;DHT22;25099;51.946;4.838;2022-11-30T05:02:23;6.40;99.90
39371;DHT22;25099;51.946;4.838;2022-11-30T05:04:49;6.50;99.90
39371;DHT22;25099;51.946;4.838;2022-11-30T05:07:14;6.50;99.90
39371;DHT22;25099;51.946;4.838;2022-11-30T05:09:40;6.50;99.90
39371;DHT22;25099;51.946;4.838;2022-11-30T05:12:06;6.50;99.90
39371;DHT22;25099;51.946;4.838;2022-11-30T05:14:31;6.50;99.90
39371;DHT22;25099;51.946;4.838;2022-11-30T05:16:57;6.50;99.90
39371;DHT22;25099;51.946;4.838;2022-11-30T05:19:22;6.50;99.90
39371;DHT22;25099;51.946;4.838;2022-11-30T05:21:48;6.50;99.90
39371;DHT22;25099;51.946;4.838;2022-11-30T05:24:14;6.60;99.90
39371;DHT22;25099;51.946;4.838;2022-11-30T05:26:39;6.60;99.90
39371;DHT22;25099;51.946;4.838;2022-11-30T05:29:05;6.50;99.90
39371;DHT22;25099;51.946;4.838;2022-11-30T05:31:31;6.50;99.90
39371;DHT22;25099;51.946;4.838;2022-11-30T05:33:57;6.50;99.90
39371;DHT22;25099;51.946;4.838;2022-11-30T05:36:23;6.50;99.90
39371;DHT22;25099;51.946;4.838;2022-11-30T05:38:48;6.50;99.90
39371;DHT22;25099;51.946;4.838;2022-11-30T05:41:14;6.50;99.90
39371;DHT22;25099;51.946;4.838;2022-11-30T05:43:40;6.60;99.90
39371;DHT22;25099;51.946;4.838;2022-11-30T05:46:07;6.50;99.90
39371;DHT22;25099;51.946;4.838;2022-11-30T05:48:34;6.50;99.90
39371;DHT22;25099;51.946;4.838;2022-11-30T05:51:07;6.60;99.90
39371;DHT22;25099;51.946;4.838;2022-11-30T05:53:33;6.60;99.90
39371;DHT22;25099;51.946;4.838;2022-11-30T05:56:16;6.60;99.90
39371;DHT22;25099;51.946;4.838;2022-11-30T05:58:42;6.10;99.90
39371;DHT22;25099;51.946;4.838;2022-11-30T06:01:19;6.60;99.90
39371;DHT22;25099;51.946;4.838;2022-11-30T06:03:45;6.60;99.90
39371;DHT22;25099;51.946;4.838;2022-11-30T06:06:11;6.60;99.90
39371;DHT22;25099;51.946;4.838;2022-11-30T06:08:36;6.60;99.90
39371;DHT22;25099;51.946;4.838;2022-11-30T06:11:02;6.60;99.90
39371;DHT22;25099;51.946;4.838;2022-11-30T06:13:28;6.60;99.90
39371;DHT22;25099;51.946;4.838;2022-11-30T06:15:56;6.60;99.90
39371;DHT22;25099;51.946;4.838;2022-11-30T06:18:22;6.70;99.90
39371;DHT22;25099;51.946;4.838;2022-11-30T06:20:47;6.70;99.90
39371;DHT22;25099;51.946;4.838;2022-11-30T06:23:16;6.70;99.90
39371;DHT22;25099;51.946;4.838;2022-11-30T06:25:42;6.70;99.90
39371;DHT22;25099;51.946;4.838;2022-11-30T06:28:09;6.60;99.90
39371;DHT22;25099;51.946;4.838;2022-11-30T06:30:35;6.60;99.90
39371;DHT22;25099;51.946;4.838;2022-11-30T06:33:00;6.60;99.90
39371;DHT22;25099;51.946;4.838;2022-11-30T06:35:29;6.70;99.90
39371;DHT22;25099;51.946;4.838;2022-11-30T06:37:55;6.70;99.90
39371;DHT22;25099;51.946;4.838;2022-11-30T06:40:21;6.70;99.90
39371;DHT22;25099;51.946;4.838;2022-11-30T06:42:47;6.60;99.90
39371;DHT22;25099;51.946;4.838;2022-11-30T06:45:12;6.60;99.90
39371;DHT22;25099;51.946;4.838;2022-11-30T06:47:38;6.60;99.90
39371;DHT22;25099;51.946;4.838;2022-11-30T06:50:04;6.60;99.90
39371;DHT22;25099;51.946;4.838;2022-11-30T06:52:30;6.60;99.90
39371;DHT22;25099;51.946;4.838;2022-11-30T06:54:56;6.50;99.90
39371;DHT22;25099;51.946;4.838;2022-11-30T06:57:26;6.50;99.90
39371;DHT22;25099;51.946;4.838;2022-11-30T06:59:54;6.50;99.90
39371;DHT22;25099;51.946;4.838;2022-11-30T07:02:19;6.20;99.90
39371;DHT22;25099;51.946;4.838;2022-11-30T07:04:45;6.50;99.90
39371;DHT22;25099;51.946;4.838;2022-11-30T07:07:11;6.60;99.90
39371;DHT22;25099;51.946;4.838;2022-11-30T07:09:36;6.60;99.90
39371;DHT22;25099;51.946;4.838;2022-11-30T07:12:02;6.60;99.90
39371;DHT22;25099;51.946;4.838;2022-11-30T07:14:28;6.50;99.90
39371;DHT22;25099;51.946;4.838;2022-11-30T07:16:55;6.50;99.90
39371;DHT22;25099;51.946;4.838;2022-11-30T07:19:21;6.50;99.90
39371;DHT22;25099;51.946;4.838;2022-11-30T07:21:47;6.50;99.90
39371;DHT22;25099;51.946;4.838;2022-11-30T07:24:13;6.50;99.90
39371;DHT22;25099;51.946;4.838;2022-11-30T07:26:59;6.50;99.90
39371;DHT22;25099;51.946;4.838;2022-11-30T07:29:25;6.50;99.90
39371;DHT22;25099;51.946;4.838;2022-11-30T07:31:51;6.40;99.90
39371;DHT22;25099;51.946;4.838;2022-11-30T07:34:20;6.50;99.90
39371;DHT22;25099;51.946;4.838;2022-11-30T07:36:46;6.50;99.90
39371;DHT22;25099;51.946;4.838;2022-11-30T07:39:13;6.40;99.90
39371;DHT22;25099;51.946;4.838;2022-11-30T07:41:42;6.50;99.90
39371;DHT22;25099;51.946;4.838;2022-11-30T07:44:08;6.50;99.90
39371;DHT22;25099;51.946;4.838;2022-11-30T07:46:35;6.50;99.90
39371;DHT22;25099;51.946;4.838;2022-11-30T07:49:05;6.60;99.90
39371;DHT22;25099;51.946;4.838;2022-11-30T07:51:32;6.60;99.90
39371;DHT22;25099;51.946;4.838;2022-11-30T07:54:01;6.60;99.90
39371;DHT22;25099;51.946;4.838;2022-11-30T07:56:27;6.60;99.90
39371;DHT22;25099;51.946;4.838;2022-11-30T07:58:55;6.60;99.90
39371;DHT22;25099;51.946;4.838;2022-11-30T08:01:26;6.70;99.90
39371;DHT22;25099;51.946;4.838;2022-11-30T08:03:52;6.70;99.90
39371;DHT22;25099;51.946;4.838;2022-11-30T08:06:25;6.70;99.90
39371;DHT22;25099;51.946;4.838;2022-11-30T08:08:57;6.70;99.90
39371;DHT22;25099;51.946;4.838;2022-11-30T08:11:28;6.80;99.90
39371;DHT22;25099;51.946;4.838;2022-11-30T08:13:55;6.80;99.90
39371;DHT22;25099;51.946;4.838;2022-11-30T08:16:23;6.80;99.90
39371;DHT22;25099;51.946;4.838;2022-11-30T08:18:49;6.80;99.90
39371;DHT22;25099;51.946;4.838;2022-11-30T08:21:17;6.90;99.90
39371;DHT22;25099;51.946;4.838;2022-11-30T08:23:45;6.90;99.90
39371;DHT22;25099;51.946;4.838;2022-11-30T08:26:13;6.90;99.90
39371;DHT22;25099;51.946;4.838;2022-11-30T08:28:40;7.00;99.90
39371;DHT22;25099;51.946;4.838;2022-11-30T08:31:09;7.00;99.90
39371;DHT22;25099;51.946;4.838;2022-11-30T08:33:39;7.00;99.90
39371;DHT22;25099;51.946;4.838;2022-11-30T08:36:06;7.10;99.90
39371;DHT22;25099;51.946;4.838;2022-11-30T08:38:32;7.10;99.90
39371;DHT22;25099;51.946;4.838;2022-11-30T08:40:58;7.10;99.90
39371;DHT22;25099;51.946;4.838;2022-11-30T08:43:23;7.10;99.90
39371;DHT22;25099;51.946;4.838;2022-11-30T08:45:49;7.10;99.90
39371;DHT22;25099;51.946;4.838;2022-11-30T08:48:14;7.00;99.90
39371;DHT22;25099;51.946;4.838;2022-11-30T08:50:44;7.10;99.90
39371;DHT22;25099;51.946;4.838;2022-11-30T08:53:12;7.20;99.90
39371;DHT22;25099;51.946;4.838;2022-11-30T08:55:41;7.20;99.90
39371;DHT22;25099;51.946;4.838;2022-11-30T08:58:07;7.20;99.90
39371;DHT22;25099;51.946;4.838;2022-11-30T09:00:32;7.30;99.90
39371;DHT22;25099;51.946;4.838;2022-11-30T09:02:58;7.30;99.90
39371;DHT22;25099;51.946;4.838;2022-11-30T09:05:23;7.30;99.90
39371;DHT22;25099;51.946;4.838;2022-11-30T09:07:52;7.30;99.90
39371;DHT22;25099;51.946;4.838;2022-11-30T09:10:19;7.30;99.90
39371;DHT22;25099;51.946;4.838;2022-11-30T09:12:44;7.40;99.90
39371;DHT22;25099;51.946;4.838;2022-11-30T09:15:10;7.40;99.90
39371;DHT22;25099;51.946;4.838;2022-11-30T09:17:35;7.40;99.90
39371;DHT22;25099;51.946;4.838;2022-11-30T09:20:01;8.50;99.90
39371;DHT22;25099;51.946;4.838;2022-11-30T09:22:27;7.50;99.90
39371;DHT22;25099;51.946;4.838;2022-11-30T09:24:54;7.50;99.90
39371;DHT22;25099;51.946;4.838;2022-11-30T09:27:20;7.50;99.90
39371;DHT22;25099;51.946;4.838;2022-11-30T09:29:45;7.60;99.90
39371;DHT22;25099;51.946;4.838;2022-11-30T09:32:11;7.70;99.90
39371;DHT22;25099;51.946;4.838;2022-11-30T09:34:36;7.60;99.90
39371;DHT22;25099;51.946;4.838;2022-11-30T09:37:02;7.70;99.90
39371;DHT22;25099;51.946;4.838;2022-11-30T09:39:28;7.60;99.90
39371;DHT22;25099;51.946;4.838;2022-11-30T09:47:38;7.80;99.90
39371;DHT22;25099;51.946;4.838;2022-11-30T09:52:38;7.80;99.90
39371;DHT22;25099;51.946;4.838;2022-11-30T09:55:12;7.80;99.90
39371;DHT22;25099;51.946;4.838;2022-11-30T09:57:48;7.90;99.90
39371;DHT22;25099;51.946;4.838;2022-11-30T10:00:19;8.00;99.90
39371;DHT22;25099;51.946;4.838;2022-11-30T10:02:51;8.00;99.90
39371;DHT22;25099;51.946;4.838;2022-11-30T10:11:53;8.30;99.90
39371;DHT22;25099;51.946;4.838;2022-11-30T10:20:10;8.50;99.90
39371;DHT22;25099;51.946;4.838;2022-11-30T10:26:10;8.50;99.90
39371;DHT22;25099;51.946;4.838;2022-11-30T10:31:18;8.60;99.90
39371;DHT22;25099;51.946;4.838;2022-11-30T10:33:49;8.60;99.90
39371;DHT22;25099;51.946;4.838;2022-11-30T10:36:26;8.50;99.90
39371;DHT22;25099;51.946;4.838;2022-11-30T10:38:59;8.60;99.90
39371;DHT22;25099;51.946;4.838;2022-11-30T10:41:32;8.60;99.90
39371;DHT22;25099;51.946;4.838;2022-11-30T10:44:08;8.60;99.90
39371;DHT22;25099;51.946;4.838;2022-11-30T10:46:37;8.60;99.90
39371;DHT22;25099;51.946;4.838;2022-11-30T10:49:17;8.70;99.90
39371;DHT22;25099;51.946;4.838;2022-11-30T10:51:46;8.60;99.90
39371;DHT22;25099;51.946;4.838;2022-11-30T10:54:17;8.70;99.90
39371;DHT22;25099;51.946;4.838;2022-11-30T10:56:44;7.90;99.90
39371;DHT22;25099;51.946;4.838;2022-11-30T10:59:18;8.60;99.90
39371;DHT22;25099;51.946;4.838;2022-11-30T11:01:45;8.70;99.90
39371;DHT22;25099;51.946;4.838;2022-11-30T11:06:56;8.80;99.90
39371;DHT22;25099;51.946;4.838;2022-11-30T11:12:18;8.80;99.90
39371;DHT22;25099;51.946;4.838;2022-11-30T11:14:45;8.80;99.90
39371;DHT22;25099;51.946;4.838;2022-11-30T11:19:44;8.80;99.90
39371;DHT22;25099;51.946;4.838;2022-11-30T11:22:25;8.90;99.90
39371;DHT22;25099;51.946;4.838;2022-11-30T11:25:10;9.10;99.90
39371;DHT22;25099;51.946;4.838;2022-11-30T11:27:53;9.20;99.90
39371;DHT22;25099;51.946;4.838;2022-11-30T11:33:02;9.30;99.90
39371;DHT22;25099;51.946;4.838;2022-11-30T11:35:33;9.30;99.90
39371;DHT22;25099;51.946;4.838;2022-11-30T11:37:59;9.30;99.90
39371;DHT22;25099;51.946;4.838;2022-11-30T11:40:25;9.30;99.90
39371;DHT22;25099;51.946;4.838;2022-11-30T11:42:52;9.30;99.90
39371;DHT22;25099;51.946;4.838;2022-11-30T11:48:06;9.40;99.90
39371;DHT22;25099;51.946;4.838;2022-11-30T11:50:59;9.30;99.90
39371;DHT22;25099;51.946;4.838;2022-11-30T11:53:46;9.30;99.90
39371;DHT22;25099;51.946;4.838;2022-11-30T11:56:35;9.30;99.90
39371;DHT22;25099;51.946;4.838;2022-11-30T12:04:47;9.20;99.90
39371;DHT22;25099;51.946;4.838;2022-11-30T12:07:37;9.20;99.90
39371;DHT22;25099;51.946;4.838;2022-11-30T12:10:51;9.30;99.90
39371;DHT22;25099;51.946;4.838;2022-11-30T12:12:57;9.30;99.90
39371;DHT22;25099;51.946;4.838;2022-11-30T12:18:22;9.40;99.90
39371;DHT22;25099;51.946;4.838;2022-11-30T12:21:08;9.30;99.90
39371;DHT22;25099;51.946;4.838;2022-11-30T12:24:19;9.20;99.90
39371;DHT22;25099;51.946;4.838;2022-11-30T12:26:58;9.10;99.90
39371;DHT22;25099;51.946;4.838;2022-11-30T12:29:59;9.00;99.90
39371;DHT22;25099;51.946;4.838;2022-11-30T12:35:32;8.90;99.90
39371;DHT22;25099;51.946;4.838;2022-11-30T12:40:58;9.00;99.90
39371;DHT22;25099;51.946;4.838;2022-11-30T12:46:18;9.10;99.90
39371;DHT22;25099;51.946;4.838;2022-11-30T12:49:10;9.20;99.90
39371;DHT22;25099;51.946;4.838;2022-11-30T12:54:52;9.30;99.90
39371;DHT22;25099;51.946;4.838;2022-11-30T12:57:27;9.40;99.90
39371;DHT22;25099;51.946;4.838;2022-11-30T13:02:39;9.60;99.90
39371;DHT22;25099;51.946;4.838;2022-11-30T13:05:15;9.60;99.90
39371;DHT22;25099;51.946;4.838;2022-11-30T13:07:50;9.60;99.90
39371;DHT22;25099;51.946;4.838;2022-11-30T13:10:28;9.60;99.90
39371;DHT22;25099;51.946;4.838;2022-11-30T13:12:57;9.50;99.90
39371;DHT22;25099;51.946;4.838;2022-11-30T13:15:27;9.40;99.90
39371;DHT22;25099;51.946;4.838;2022-11-30T13:17:54;9.40;99.90
39371;DHT22;25099;51.946;4.838;2022-11-30T13:23:12;9.50;99.90
39371;DHT22;25099;51.946;4.838;2022-11-30T13:28:49;9.50;99.90
39371;DHT22;25099;51.946;4.838;2022-11-30T13:31:37;9.50;99.90
39371;DHT22;25099;51.946;4.838;2022-11-30T13:34:27;9.50;99.90
39371;DHT22;25099;51.946;4.838;2022-11-30T13:37:19;9.50;99.90
39371;DHT22;25099;51.946;4.838;2022-11-30T13:39:55;9.40;99.90
39371;DHT22;25099;51.946;4.838;2022-11-30T13:47:50;9.30;99.90
39371;DHT22;25099;51.946;4.838;2022-11-30T13:58:12;9.20;99.90
39371;DHT22;25099;51.946;4.838;2022-11-30T14:03:25;9.10;99.90
39371;DHT22;25099;51.946;4.838;2022-11-30T14:10:51;8.90;99.90
39371;DHT22;25099;51.946;4.838;2022-11-30T14:21:12;8.70;99.90
39371;DHT22;25099;51.946;4.838;2022-11-30T14:26:10;8.50;99.90
39371;DHT22;25099;51.946;4.838;2022-11-30T14:29:03;8.50;99.90
39371;DHT22;25099;51.946;4.838;2022-11-30T14:31:41;8.50;99.90
39371;DHT22;25099;51.946;4.838;2022-11-30T14:34:23;8.50;99.90
39371;DHT22;25099;51.946;4.838;2022-11-30T14:37:02;8.50;99.90
39371;DHT22;25099;51.946;4.838;2022-11-30T14:39:35;8.40;99.90
39371;DHT22;25099;51.946;4.838;2022-11-30T14:42:03;8.40;99.90
39371;DHT22;25099;51.946;4.838;2022-11-30T14:44:34;8.40;99.90
39371;DHT22;25099;51.946;4.838;2022-11-30T14:49:51;8.40;99.90
39371;DHT22;25099;51.946;4.838;2022-11-30T15:00:41;8.30;99.90
39371;DHT22;25099;51.946;4.838;2022-11-30T15:03:20;8.40;99.90
39371;DHT22;25099;51.946;4.838;2022-11-30T15:05:59;8.30;99.90
39371;DHT22;25099;51.946;4.838;2022-11-30T15:08:33;8.30;99.90
39371;DHT22;25099;51.946;4.838;2022-11-30T15:11:07;8.30;99.90
39371;DHT22;25099;51.946;4.838;2022-11-30T15:13:38;8.20;99.90
39371;DHT22;25099;51.946;4.838;2022-11-30T15:16:08;8.10;99.90
39371;DHT22;25099;51.946;4.838;2022-11-30T15:18:40;8.10;99.90
39371;DHT22;25099;51.946;4.838;2022-11-30T15:21:07;8.00;99.90
39371;DHT22;25099;51.946;4.838;2022-11-30T15:23:37;7.90;99.90
39371;DHT22;25099;51.946;4.838;2022-11-30T15:29:14;7.80;99.90
39371;DHT22;25099;51.946;4.838;2022-11-30T15:31:44;7.80;99.90
39371;DHT22;25099;51.946;4.838;2022-11-30T15:36:46;7.70;99.90
39371;DHT22;25099;51.946;4.838;2022-11-30T15:39:18;7.70;99.90
39371;DHT22;25099;51.946;4.838;2022-11-30T15:41:53;7.60;99.90
39371;DHT22;25099;51.946;4.838;2022-11-30T15:47:23;7.50;99.90
39371;DHT22;25099;51.946;4.838;2022-11-30T15:49:53;7.50;99.90
39371;DHT22;25099;51.946;4.838;2022-11-30T15:52:25;7.50;99.90
39371;DHT22;25099;51.946;4.838;2022-11-30T15:54:52;7.40;99.90
39371;DHT22;25099;51.946;4.838;2022-11-30T15:57:20;7.30;99.90
39371;DHT22;25099;51.946;4.838;2022-11-30T16:00:07;7.40;99.90
39371;DHT22;25099;51.946;4.838;2022-11-30T16:02:35;7.30;99.90
39371;DHT22;25099;51.946;4.838;2022-11-30T16:07:51;7.20;99.90
39371;DHT22;25099;51.946;4.838;2022-11-30T16:10:25;7.10;99.90
39371;DHT22;25099;51.946;4.838;2022-11-30T16:12:52;7.00;99.90
39371;DHT22;25099;51.946;4.838;2022-11-30T16:15:27;7.10;99.90
39371;DHT22;25099;51.946;4.838;2022-11-30T16:17:59;7.00;99.90
39371;DHT22;25099;51.946;4.838;2022-11-30T16:20:25;6.90;99.90
39371;DHT22;25099;51.946;4.838;2022-11-30T16:22:51;6.80;99.90
39371;DHT22;25099;51.946;4.838;2022-11-30T16:25:18;6.70;99.90
39371;DHT22;25099;51.946;4.838;2022-11-30T16:27:45;6.60;99.90
39371;DHT22;25099;51.946;4.838;2022-11-30T16:30:18;6.60;99.90
39371;DHT22;25099;51.946;4.838;2022-11-30T16:32:44;6.60;99.90
39371;DHT22;25099;51.946;4.838;2022-11-30T16:35:22;6.50;99.90
39371;DHT22;25099;51.946;4.838;2022-11-30T16:37:49;6.40;99.90
39371;DHT22;25099;51.946;4.838;2022-11-30T16:40:15;6.40;99.90
39371;DHT22;25099;51.946;4.838;2022-11-30T16:42:41;6.30;99.90
39371;DHT22;25099;51.946;4.838;2022-11-30T16:45:16;6.20;99.90
39371;DHT22;25099;51.946;4.838;2022-11-30T16:47:43;6.20;99.90
39371;DHT22;25099;51.946;4.838;2022-11-30T16:50:12;6.10;99.90
39371;DHT22;25099;51.946;4.838;2022-11-30T16:52:39;6.20;99.90
39371;DHT22;25099;51.946;4.838;2022-11-30T16:55:13;6.10;99.90
39371;DHT22;25099;51.946;4.838;2022-11-30T16:57:40;6.00;99.90
39371;DHT22;25099;51.946;4.838;2022-11-30T17:00:07;6.00;99.90
39371;DHT22;25099;51.946;4.838;2022-11-30T17:02:33;6.00;99.90
39371;DHT22;25099;51.946;4.838;2022-11-30T17:05:00;6.00;99.90
39371;DHT22;25099;51.946;4.838;2022-11-30T17:07:26;5.90;99.90
39371;DHT22;25099;51.946;4.838;2022-11-30T17:09:55;5.80;99.90
39371;DHT22;25099;51.946;4.838;2022-11-30T17:12:20;5.80;99.90
39371;DHT22;25099;51.946;4.838;2022-11-30T17:14:46;5.70;99.90
39371;DHT22;25099;51.946;4.838;2022-11-30T17:17:11;5.60;99.90
39371;DHT22;25099;51.946;4.838;2022-11-30T17:19:37;5.60;99.90
39371;DHT22;25099;51.946;4.838;2022-11-30T17:22:03;5.60;99.90
39371;DHT22;25099;51.946;4.838;2022-11-30T17:24:28;6.50;99.90
39371;DHT22;25099;51.946;4.838;2022-11-30T17:26:54;5.50;99.90
39371;DHT22;25099;51.946;4.838;2022-11-30T17:29:19;5.40;99.90
39371;DHT22;25099;51.946;4.838;2022-11-30T17:31:45;5.40;99.90
39371;DHT22;25099;51.946;4.838;2022-11-30T17:34:11;5.30;99.90
39371;DHT22;25099;51.946;4.838;2022-11-30T17:36:40;5.30;99.90
39371;DHT22;25099;51.946;4.838;2022-11-30T17:39:07;5.20;99.90
39371;DHT22;25099;51.946;4.838;2022-11-30T17:41:33;5.10;99.90
39371;DHT22;25099;51.946;4.838;2022-11-30T17:44:00;5.20;99.90
39371;DHT22;25099;51.946;4.838;2022-11-30T17:46:26;5.20;99.90
39371;DHT22;25099;51.946;4.838;2022-11-30T17:48:51;5.20;99.90
39371;DHT22;25099;51.946;4.838;2022-11-30T17:51:17;5.20;99.90
39371;DHT22;25099;51.946;4.838;2022-11-30T17:53:43;5.10;99.90
39371;DHT22;25099;51.946;4.838;2022-11-30T17:56:11;5.10;99.90
39371;DHT22;25099;51.946;4.838;2022-11-30T17:58:38;5.10;99.90
39371;DHT22;25099;51.946;4.838;2022-11-30T18:01:05;5.10;99.90
39371;DHT22;25099;51.946;4.838;2022-11-30T18:03:32;5.10;99.90
39371;DHT22;25099;51.946;4.838;2022-11-30T18:06:01;5.00;99.90
39371;DHT22;25099;51.946;4.838;2022-11-30T18:08:28;5.00;99.90
39371;DHT22;25099;51.946;4.838;2022-11-30T18:10:53;4.90;99.90
39371;DHT22;25099;51.946;4.838;2022-11-30T18:13:20;4.90;99.90
39371;DHT22;25099;51.946;4.838;2022-11-30T18:15:46;4.90;99.90
39371;DHT22;25099;51.946;4.838;2022-11-30T18:18:11;4.90;99.90